Time,TemperatureF,DewpointF,PressureIn,WindDirection,WindDirectionDegrees,WindSpeedMPH,WindSpeedGustMPH,Humidity,HourlyPrecipIn,Conditions,Clouds,dailyrainin,SoftwareType,DateUTC
2013-05-08 00:01:00,57.9,40.9,30.01,ENE,74,0.0,0.0,53,0.00,,BKN260,0.00,VWS V14.01,2013-05-08 04:01:00,
2013-05-08 00:02:00,57.9,40.9,30.01,ENE,74,0.0,0.0,53,0.00,,BKN260,0.00,VWS V14.01,2013-05-08 04:02:00,
2013-05-08 00:07:00,57.9,41.4,30.01,ENE,74,0.0,0.0,54,0.00,,BKN260,0.00,VWS V14.01,2013-05-08 04:07:00,
2013-05-08 00:09:00,57.7,41.2,30.01,ENE,74,0.0,0.0,54,0.00,,BKN260,0.00,VWS V14.01,2013-05-08 04:09:00,
2013-05-08 00:14:00,57.6,41.1,30.01,ENE,74,0.0,0.0,54,0.00,,BKN260,0.00,VWS V14.01,2013-05-08 04:14:00,
2013-05-08 00:19:00,57.6,41.5,30.01,ENE,74,0.0,0.0,55,0.00,,BKN260,0.00,VWS V14.01,2013-05-08 04:19:00,
2013-05-08 00:24:00,57.6,41.5,29.98,ENE,74,0.0,0.0,55,0.00,,BKN260,0.00,VWS V14.01,2013-05-08 04:24:00,
2013-05-08 00:29:00,57.6,42.0,29.98,ENE,77,0.0,0.0,56,0.00,,BKN260,0.00,VWS V14.01,2013-05-08 04:29:00,
2013-05-08 00:34:00,57.6,42.0,29.98,ENE,77,0.0,0.0,56,0.00,,BKN260,0.00,VWS V14.01,2013-05-08 04:34:00,
2013-05-08 00:39:00,57.4,41.8,30.01,ENE,78,0.0,0.0,56,0.00,,BKN260,0.00,VWS V14.01,2013-05-08 04:39:00,
2013-05-08 00:44:00,57.4,42.3,30.01,ENE,78,0.0,0.0,57,0.00,,BKN260,0.00,VWS V14.01,2013-05-08 04:44:00,
2013-05-08 00:49:00,57.4,42.3,30.01,ENE,78,0.0,0.0,57,0.00,,BKN260,0.00,VWS V14.01,2013-05-08 04:49:00,
2013-05-08 00:55:00,57.2,42.1,30.01,SSE,148,0.0,0.0,57,0.00,,BKN260,0.00,VWS V14.01,2013-05-08 04:55:00,
2013-05-08 01:00:00,57.2,42.6,30.01,SSE,147,0.0,0.0,58,0.00,,BKN260,0.00,VWS V14.01,2013-05-08 05:00:00,
2013-05-08 01:05:00,57.2,43.0,30.01,SSE,147,0.0,0.0,59,0.00,,BKN260,0.00,VWS V14.01,2013-05-08 05:05:00,
2013-05-08 01:10:00,57.0,43.3,30.01,SSE,147,0.0,0.0,60,0.00,,BKN260,0.00,VWS V14.01,2013-05-08 05:10:00,
2013-05-08 01:15:00,56.8,43.5,30.01,SSE,147,0.0,0.0,61,0.00,,BKN260,0.00,VWS V14.01,2013-05-08 05:15:00,
2013-05-08 01:20:00,56.7,43.4,30.01,SSE,147,0.0,0.0,61,0.00,,BKN260,0.00,VWS V14.01,2013-05-08 05:20:00,
2013-05-08 01:25:00,56.5,43.6,29.98,SSE,147,0.0,0.0,62,0.00,,BKN260,0.00,VWS V14.01,2013-05-08 05:25:00,
2013-05-08 01:30:00,56.8,44.0,29.98,SSE,148,0.0,0.0,62,0.00,,BKN260,0.00,VWS V14.01,2013-05-08 05:30:00,
2013-05-08 01:35:00,56.5,42.8,29.98,SSE,147,0.0,0.0,60,0.00,,BKN250,0.00,VWS V14.01,2013-05-08 05:35:00,
2013-05-08 01:40:00,56.3,42.6,29.98,SSE,147,0.0,0.0,60,0.00,,BKN250,0.00,VWS V14.01,2013-05-08 05:40:00,
2013-05-08 01:45:00,56.1,42.9,29.98,SSE,148,0.0,0.0,61,0.00,,BKN250,0.00,VWS V14.01,2013-05-08 05:45:00,
2013-05-08 01:50:00,56.1,43.3,29.98,SSE,147,0.0,0.0,62,0.00,,BKN250,0.00,VWS V14.01,2013-05-08 05:50:00,
2013-05-08 01:55:00,56.1,43.3,29.98,SSE,147,0.0,0.0,62,0.00,,BKN250,0.00,VWS V14.01,2013-05-08 05:55:00,
2013-05-08 02:00:00,55.9,43.1,29.98,SSE,147,0.0,0.0,62,0.00,,BKN250,0.00,VWS V14.01,2013-05-08 06:00:00,
2013-05-08 02:05:00,56.1,43.7,29.98,SSE,147,0.0,0.0,63,0.00,,BKN250,0.00,VWS V14.01,2013-05-08 06:05:00,
2013-05-08 02:10:00,55.9,43.5,29.98,SSE,147,0.0,0.0,63,0.00,,BKN250,0.00,VWS V14.01,2013-05-08 06:10:00,
2013-05-08 02:15:00,55.6,43.2,29.98,SSE,147,0.0,0.0,63,0.00,,BKN250,0.00,VWS V14.01,2013-05-08 06:15:00,
2013-05-08 02:20:00,55.6,43.2,29.98,SSE,147,0.0,0.0,63,0.00,,BKN250,0.00,VWS V14.01,2013-05-08 06:20:00,
2013-05-08 02:25:00,55.4,43.0,29.98,SSE,147,0.0,0.0,63,0.00,,BKN250,0.00,VWS V14.01,2013-05-08 06:25:00,
2013-05-08 02:30:00,55.2,42.9,29.98,SSE,147,0.0,0.0,63,0.00,,BKN250,0.00,VWS V14.01,2013-05-08 06:30:00,
2013-05-08 02:35:00,54.9,43.3,29.98,SSE,147,0.0,0.0,65,0.00,,BKN250,0.00,VWS V14.01,2013-05-08 06:35:00,
2013-05-08 02:40:00,54.9,43.7,29.98,SSE,148,0.0,0.0,66,0.00,,BKN250,0.00,VWS V14.01,2013-05-08 06:40:00,
2013-05-08 02:45:00,54.9,43.7,29.98,SSE,148,0.0,0.0,66,0.00,,BKN250,0.00,VWS V14.01,2013-05-08 06:45:00,
2013-05-08 02:50:00,55.0,43.5,29.98,SSE,147,0.0,0.0,65,0.00,,BKN250,0.00,VWS V14.01,2013-05-08 06:50:00,
2013-05-08 02:55:00,55.0,42.7,29.98,SSE,147,0.0,0.0,63,0.00,,BKN250,0.00,VWS V14.01,2013-05-08 06:55:00,
2013-05-08 03:00:00,54.9,43.3,29.98,SSE,147,0.0,0.0,65,0.00,,BKN250,0.00,VWS V14.01,2013-05-08 07:00:00,
2013-05-08 03:05:00,54.7,43.2,29.98,SSE,147,0.0,0.0,65,0.00,,BKN250,0.00,VWS V14.01,2013-05-08 07:05:00,
2013-05-08 03:10:00,54.5,43.4,29.98,SSE,147,0.0,0.0,66,0.00,,BKN250,0.00,VWS V14.01,2013-05-08 07:10:00,
2013-05-08 03:15:00,54.5,43.8,29.98,SSE,147,0.0,0.0,67,0.00,,BKN250,0.00,VWS V14.01,2013-05-08 07:15:00,
2013-05-08 03:20:00,54.3,44.4,29.98,SSE,147,0.0,0.0,69,0.00,,BKN250,0.00,VWS V14.01,2013-05-08 07:20:00,
2013-05-08 03:25:00,54.1,44.2,29.98,SSE,148,0.0,0.0,69,0.00,,BKN250,0.00,VWS V14.01,2013-05-08 07:25:00,
2013-05-08 03:30:00,54.0,44.0,29.98,SSE,147,0.0,0.0,69,0.00,,BKN250,0.00,VWS V14.01,2013-05-08 07:30:00,
2013-05-08 03:35:00,53.8,43.5,29.98,SSE,147,0.0,0.0,68,0.00,,BKN250,0.00,VWS V14.01,2013-05-08 07:35:00,
2013-05-08 03:40:00,54.0,44.0,29.98,SSE,147,0.0,0.0,69,0.00,,BKN250,0.00,VWS V14.01,2013-05-08 07:40:00,
2013-05-08 03:45:00,53.6,43.3,29.98,SSE,147,0.0,0.0,68,0.00,,BKN250,0.00,VWS V14.01,2013-05-08 07:45:00,
2013-05-08 03:50:00,53.8,43.1,29.98,SSE,147,0.0,0.0,67,0.00,,BKN250,0.00,VWS V14.01,2013-05-08 07:50:00,
2013-05-08 03:55:00,54.1,43.4,29.98,SSE,148,0.0,0.0,67,0.00,,BKN250,0.00,VWS V14.01,2013-05-08 07:55:00,
2013-05-08 04:00:00,54.3,43.2,29.98,SSE,147,0.0,0.0,66,0.00,,BKN250,0.00,VWS V14.01,2013-05-08 08:00:00,
2013-05-08 04:05:00,54.3,42.8,29.98,SSE,147,0.0,0.0,65,0.00,,BKN250,0.00,VWS V14.01,2013-05-08 08:05:00,
2013-05-08 04:10:00,54.3,43.2,29.98,SSE,147,0.0,0.0,66,0.00,,BKN250,0.00,VWS V14.01,2013-05-08 08:10:00,
2013-05-08 04:15:00,54.5,43.4,29.98,SSE,148,0.0,0.0,66,0.00,,BKN250,0.00,VWS V14.01,2013-05-08 08:15:00,
2013-05-08 04:20:00,54.5,44.2,29.98,SSE,147,0.0,0.0,68,0.00,,BKN250,0.00,VWS V14.01,2013-05-08 08:20:00,
2013-05-08 04:25:00,54.7,45.5,29.98,SSE,147,0.0,0.0,71,0.00,,BKN250,0.00,VWS V14.01,2013-05-08 08:25:00,
2013-05-08 04:30:00,54.7,45.5,29.98,SSE,147,0.0,0.0,71,0.00,,BKN250,0.00,VWS V14.01,2013-05-08 08:30:00,
2013-05-08 04:36:00,54.7,45.8,29.98,South,182,0.0,2.7,72,0.00,,BKN250,0.00,VWS V14.01,2013-05-08 08:36:00,
2013-05-08 04:41:00,54.7,46.2,29.98,South,181,0.0,2.7,73,0.00,,BKN250,0.00,VWS V14.01,2013-05-08 08:41:00,
2013-05-08 04:46:00,54.7,46.2,29.98,South,178,0.0,2.7,73,0.00,,BKN250,0.00,VWS V14.01,2013-05-08 08:46:00,
2013-05-08 04:51:00,54.9,46.0,29.98,South,178,2.2,3.1,72,0.00,,BKN250,0.00,VWS V14.01,2013-05-08 08:51:00,
2013-05-08 04:56:00,55.2,45.6,29.98,South,178,0.0,3.1,70,0.00,,BKN250,0.00,VWS V14.01,2013-05-08 08:56:00,
2013-05-08 05:01:00,55.2,45.6,29.98,South,178,2.2,2.2,70,0.00,,BKN250,0.00,VWS V14.01,2013-05-08 09:01:00,
2013-05-08 05:06:00,55.0,45.8,29.98,South,178,0.0,0.0,71,0.00,,BKN250,0.00,VWS V14.01,2013-05-08 09:06:00,
2013-05-08 05:11:00,55.0,46.2,29.98,South,178,0.0,0.0,72,0.00,,BKN250,0.00,VWS V14.01,2013-05-08 09:11:00,
2013-05-08 05:16:00,55.0,45.8,29.98,South,178,2.7,2.7,71,0.00,,BKN250,0.00,VWS V14.01,2013-05-08 09:16:00,
2013-05-08 05:21:00,55.6,46.0,29.98,South,173,2.7,4.0,70,0.00,,BKN250,0.00,VWS V14.01,2013-05-08 09:21:00,
2013-05-08 05:26:00,55.9,45.9,29.98,SSE,166,2.7,4.0,69,0.00,,BKN250,0.00,VWS V14.01,2013-05-08 09:26:00,
2013-05-08 05:31:00,56.1,45.7,29.98,South,176,3.6,4.0,68,0.00,,BKN250,0.00,VWS V14.01,2013-05-08 09:31:00,
2013-05-08 05:36:00,56.1,45.7,29.98,South,176,3.6,4.0,68,0.00,,BKN250,0.00,VWS V14.01,2013-05-08 09:36:00,
2013-05-08 05:41:00,56.3,45.5,29.98,South,172,3.1,4.0,67,0.00,,BKN250,0.00,VWS V14.01,2013-05-08 09:41:00,
2013-05-08 05:46:00,56.3,45.5,29.98,South,177,2.7,4.0,67,0.00,,BKN250,0.00,VWS V14.01,2013-05-08 09:46:00,
2013-05-08 05:51:00,56.3,45.5,29.98,SSE,165,3.1,4.0,67,0.00,,BKN250,0.00,VWS V14.01,2013-05-08 09:51:00,
2013-05-08 05:56:00,56.3,45.1,29.98,South,177,3.6,4.0,66,0.00,,BKN250,0.00,VWS V14.01,2013-05-08 09:56:00,
2013-05-08 06:01:00,56.5,45.3,29.98,SSE,166,3.6,4.9,66,0.00,,BKN250,0.00,VWS V14.01,2013-05-08 10:01:00,
2013-05-08 06:06:00,56.3,45.1,29.98,SSE,167,2.2,3.1,66,0.00,,BKN250,0.00,VWS V14.01,2013-05-08 10:06:00,
2013-05-08 06:11:00,56.3,45.1,29.98,SE,143,3.6,4.9,66,0.00,,BKN250,0.00,VWS V14.01,2013-05-08 10:11:00,
2013-05-08 06:16:00,56.5,45.3,29.98,SSE,165,2.7,4.0,66,0.00,,BKN250,0.00,VWS V14.01,2013-05-08 10:16:00,
2013-05-08 06:21:00,56.7,45.4,29.98,SE,129,4.0,4.0,66,0.00,,BKN250,0.00,VWS V14.01,2013-05-08 10:21:00,
2013-05-08 06:26:00,56.7,45.4,29.98,SSE,159,3.1,3.6,66,0.00,,BKN250,0.00,VWS V14.01,2013-05-08 10:26:00,
2013-05-08 06:31:00,56.8,45.6,29.98,SSE,155,0.0,4.0,66,0.00,,BKN250,0.00,VWS V14.01,2013-05-08 10:31:00,
2013-05-08 06:36:00,57.0,45.8,29.98,SSE,149,0.0,3.6,66,0.00,,BKN250,0.00,VWS V14.01,2013-05-08 10:36:00,
2013-05-08 06:41:00,57.2,46.0,29.98,SE,140,0.0,3.1,66,0.00,,BKN250,0.00,VWS V14.01,2013-05-08 10:41:00,
2013-05-08 06:46:00,57.4,46.5,29.98,SSE,150,3.1,3.6,67,0.00,,BKN250,0.00,VWS V14.01,2013-05-08 10:46:00,
2013-05-08 06:51:00,57.4,46.5,29.98,SSE,150,0.0,0.0,67,0.00,,BKN250,0.00,VWS V14.01,2013-05-08 10:51:00,
2013-05-08 06:56:00,57.7,46.9,29.98,SE,135,0.0,3.1,67,0.00,,BKN250,0.00,VWS V14.01,2013-05-08 10:56:00,
2013-05-08 07:01:00,57.9,46.6,29.98,SE,135,0.0,0.0,66,0.00,,BKN250,0.00,VWS V14.01,2013-05-08 11:01:00,
2013-05-08 07:06:00,58.1,47.2,29.98,SSE,156,0.0,4.0,67,0.00,,BKN250,0.00,VWS V14.01,2013-05-08 11:06:00,
2013-05-08 07:11:00,58.5,47.2,29.98,ESE,123,2.7,3.1,66,0.00,,BKN250,0.00,VWS V14.01,2013-05-08 11:11:00,
2013-05-08 07:16:00,58.6,46.9,29.98,SSE,150,3.1,3.1,65,0.00,,BKN250,0.00,VWS V14.01,2013-05-08 11:16:00,
2013-05-08 07:21:00,58.8,47.5,29.98,SSE,157,0.0,4.0,66,0.00,,BKN250,0.00,VWS V14.01,2013-05-08 11:21:00,
2013-05-08 07:26:00,59.0,47.3,29.98,East,96,0.0,2.7,65,0.00,,BKN250,0.00,VWS V14.01,2013-05-08 11:26:00,
2013-05-08 07:31:00,59.2,47.4,29.98,SSE,157,2.2,4.9,65,0.00,,BKN250,0.00,VWS V14.01,2013-05-08 11:31:00,
2013-05-08 07:36:00,59.2,47.4,29.98,SE,137,5.4,5.4,65,0.00,,BKN250,0.00,VWS V14.01,2013-05-08 11:36:00,
2013-05-08 07:41:00,59.5,47.4,29.98,SE,146,2.7,4.9,64,0.00,,BKN250,0.00,VWS V14.01,2013-05-08 11:41:00,
2013-05-08 07:46:00,59.7,48.0,29.98,SE,130,2.7,4.9,65,0.00,,BKN250,0.00,VWS V14.01,2013-05-08 11:46:00,
2013-05-08 07:51:00,59.9,48.1,29.98,SSE,154,2.7,4.0,65,0.00,,BKN250,0.00,VWS V14.01,2013-05-08 11:51:00,
2013-05-08 07:56:00,60.1,48.3,29.98,SSE,153,2.2,5.4,65,0.00,,BKN250,0.00,VWS V14.01,2013-05-08 11:56:00,
2013-05-08 08:01:00,60.3,48.5,29.98,SSE,157,2.7,4.9,65,0.00,,BKN250,0.00,VWS V14.01,2013-05-08 12:01:00,
2013-05-08 08:06:00,60.4,48.2,30.01,SSE,148,2.7,3.6,64,0.00,,BKN250,0.00,VWS V14.01,2013-05-08 12:06:00,
2013-05-08 08:11:00,60.4,48.2,30.01,SE,138,2.7,4.0,64,0.00,,BKN250,0.00,VWS V14.01,2013-05-08 12:11:00,
2013-05-08 08:17:00,60.6,48.4,30.01,SSE,156,3.1,6.3,64,0.00,,BKN250,0.00,VWS V14.01,2013-05-08 12:17:00,
2013-05-08 08:22:00,60.8,48.1,30.01,SE,134,3.1,4.0,63,0.00,,BKN250,0.00,VWS V14.01,2013-05-08 12:22:00,
2013-05-08 08:27:00,61.2,48.9,30.01,ESE,119,3.1,4.0,64,0.00,,BKN250,0.00,VWS V14.01,2013-05-08 12:27:00,
2013-05-08 08:32:00,61.5,49.2,30.01,ENE,77,0.0,3.6,64,0.00,,BKN250,0.00,VWS V14.01,2013-05-08 12:32:00,
2013-05-08 08:37:00,61.7,49.0,30.01,ESE,111,4.5,5.4,63,0.00,,BKN250,0.00,VWS V14.01,2013-05-08 12:37:00,
2013-05-08 08:42:00,61.7,49.0,30.01,SE,126,2.2,4.9,63,0.00,,BKN250,0.00,VWS V14.01,2013-05-08 12:42:00,
2013-05-08 08:47:00,61.7,49.0,30.01,SSE,149,2.7,5.4,63,0.00,,BKN250,0.00,VWS V14.01,2013-05-08 12:47:00,
2013-05-08 08:52:00,61.7,49.4,30.01,East,85,2.7,2.7,64,0.00,,BKN250,0.00,VWS V14.01,2013-05-08 12:52:00,
2013-05-08 08:57:00,61.9,49.6,30.01,ESE,103,0.0,3.1,64,0.00,,BKN250,0.00,VWS V14.01,2013-05-08 12:57:00,
2013-05-08 09:02:00,62.1,49.3,30.01,SE,129,5.4,5.4,63,0.00,,BKN250,0.00,VWS V14.01,2013-05-08 13:02:00,
2013-05-08 09:07:00,62.4,49.7,30.01,ENE,78,2.7,6.3,63,0.00,,BKN250,0.00,VWS V14.01,2013-05-08 13:07:00,
2013-05-08 09:12:00,63.0,50.2,30.01,ESE,106,3.6,5.4,63,0.00,,BKN250,0.00,VWS V14.01,2013-05-08 13:12:00,
2013-05-08 09:17:00,63.5,50.7,30.01,SSE,147,5.8,5.8,63,0.00,,BKN250,0.00,VWS V14.01,2013-05-08 13:17:00,
2013-05-08 09:22:00,64.4,51.5,30.01,SSE,166,3.6,3.6,63,0.00,,BKN250,0.00,VWS V14.01,2013-05-08 13:22:00,
2013-05-08 09:27:00,64.9,52.1,30.01,South,188,8.1,8.1,63,0.00,,BKN250,0.00,VWS V14.01,2013-05-08 13:27:00,
2013-05-08 09:32:00,64.8,51.0,30.01,SE,138,2.7,5.8,61,0.00,,BKN250,0.00,VWS V14.01,2013-05-08 13:32:00,
2013-05-08 09:37:00,65.1,51.3,30.01,South,182,4.0,5.4,61,0.00,,-RA,0.00,VWS V14.01,2013-05-08 13:37:00,
2013-05-08 09:42:00,65.1,50.9,30.01,South,182,6.3,7.6,60,0.00,,-RA,0.00,VWS V14.01,2013-05-08 13:42:00,
2013-05-08 09:47:00,65.1,50.5,30.01,South,187,8.1,8.1,59,0.00,,-RA,0.00,VWS V14.01,2013-05-08 13:47:00,
2013-05-08 09:52:00,65.1,50.5,30.01,SE,136,5.4,5.4,59,0.00,,-RA,0.00,VWS V14.01,2013-05-08 13:52:00,
2013-05-08 09:57:00,65.5,51.2,30.01,SE,139,5.4,5.4,60,0.00,,-RA,0.00,VWS V14.01,2013-05-08 13:57:00,
2013-05-08 10:02:00,65.5,51.2,30.01,ESE,120,2.2,2.2,60,0.00,,-RA,0.00,VWS V14.01,2013-05-08 14:02:00,
2013-05-08 10:07:00,65.5,50.8,29.98,ESE,116,3.6,3.6,59,0.00,,-RA,0.00,VWS V14.01,2013-05-08 14:07:00,
2013-05-08 10:12:00,65.7,51.0,29.98,SE,124,3.1,5.8,59,0.00,,-RA,0.00,VWS V14.01,2013-05-08 14:12:00,
2013-05-08 10:17:00,65.8,51.1,29.98,ESE,118,4.0,6.3,59,0.00,,-RA,0.00,VWS V14.01,2013-05-08 14:17:00,
2013-05-08 10:22:00,66.0,51.3,29.98,ESE,116,3.6,5.8,59,0.00,,-RA,0.00,VWS V14.01,2013-05-08 14:22:00,
2013-05-08 10:27:00,66.0,50.8,29.98,SE,142,7.2,8.3,58,0.00,,-RA,0.00,VWS V14.01,2013-05-08 14:27:00,
2013-05-08 10:32:00,66.0,50.8,29.98,SSE,153,5.8,8.3,58,0.00,,-RA,0.00,VWS V14.01,2013-05-08 14:32:00,
2013-05-08 10:37:00,66.2,51.5,30.01,SE,128,3.6,4.9,59,0.00,,-RA,0.00,VWS V14.01,2013-05-08 14:37:00,
2013-05-08 10:42:00,66.6,51.8,30.01,SSE,155,6.3,6.3,59,0.00,,-RA,0.00,VWS V14.01,2013-05-08 14:42:00,
2013-05-08 10:47:00,66.7,51.0,30.01,South,183,4.9,4.9,57,0.00,,-RA,0.00,VWS V14.01,2013-05-08 14:47:00,
2013-05-08 10:52:00,66.9,51.7,30.01,SE,146,3.1,3.1,58,0.00,,-RA,0.00,VWS V14.01,2013-05-08 14:52:00,
2013-05-08 10:57:00,67.3,51.5,30.01,ENE,75,3.6,3.6,57,0.00,,-RA,0.00,VWS V14.01,2013-05-08 14:57:00,
2013-05-08 11:02:00,67.5,52.2,30.01,ESE,114,2.7,5.4,58,0.00,,-RA,0.00,VWS V14.01,2013-05-08 15:02:00,
2013-05-08 11:07:00,67.8,52.5,29.98,ESE,117,3.6,3.6,58,0.00,,-RA,0.00,VWS V14.01,2013-05-08 15:07:00,
2013-05-08 11:12:00,68.5,52.7,29.98,South,185,4.0,8.1,57,0.00,,-RA,0.00,VWS V14.01,2013-05-08 15:12:00,
2013-05-08 11:17:00,68.7,52.4,29.98,South,186,5.8,6.7,56,0.00,,-RA,0.00,VWS V14.01,2013-05-08 15:17:00,
2013-05-08 11:22:00,69.1,52.7,29.98,SSE,156,11.9,11.9,56,0.00,,-RA,0.00,VWS V14.01,2013-05-08 15:22:00,
2013-05-08 11:27:00,68.7,51.9,29.98,South,173,7.6,10.1,55,0.00,,-RA,0.00,VWS V14.01,2013-05-08 15:27:00,
2013-05-08 11:32:00,69.4,53.1,29.98,SE,137,4.0,5.4,56,0.00,,-RA,0.00,VWS V14.01,2013-05-08 15:32:00,
2013-05-08 11:37:00,69.6,52.3,29.98,ESE,120,6.3,6.7,54,0.00,,-RA,0.00,VWS V14.01,2013-05-08 15:37:00,
2013-05-08 11:42:00,69.4,52.1,29.98,East,91,5.8,6.7,54,0.00,,-RA,0.00,VWS V14.01,2013-05-08 15:42:00,
2013-05-08 11:48:00,69.4,51.6,29.98,SE,143,3.6,3.6,53,0.00,,-RA,0.00,VWS V14.01,2013-05-08 15:48:00,
2013-05-08 11:53:00,69.8,51.4,29.98,East,92,5.8,6.7,52,0.00,,-RA,0.00,VWS V14.01,2013-05-08 15:53:00,
2013-05-08 11:58:00,69.8,51.9,29.98,ESE,106,4.0,8.7,53,0.00,,-RA,0.00,VWS V14.01,2013-05-08 15:58:00,
2013-05-08 12:03:00,69.8,51.9,29.98,SE,136,5.4,5.4,53,0.00,,BKN090,0.00,VWS V14.01,2013-05-08 16:03:00,
2013-05-08 12:08:00,69.8,51.4,29.98,SE,145,3.1,7.6,52,0.00,,BKN090,0.00,VWS V14.01,2013-05-08 16:08:00,
2013-05-08 12:13:00,69.4,51.1,29.98,SE,129,5.8,5.8,52,0.00,,BKN090,0.00,VWS V14.01,2013-05-08 16:13:00,
2013-05-08 12:18:00,69.3,50.9,29.98,SE,128,5.4,6.3,52,0.00,,BKN090,0.00,VWS V14.01,2013-05-08 16:18:00,
2013-05-08 12:23:00,69.3,51.4,29.98,ESE,116,2.7,8.1,53,0.00,,BKN090,0.00,VWS V14.01,2013-05-08 16:23:00,
2013-05-08 12:28:00,69.1,51.2,29.98,SE,130,4.5,5.8,53,0.00,,BKN090,0.00,VWS V14.01,2013-05-08 16:28:00,
2013-05-08 12:33:00,69.1,50.7,29.98,SE,142,3.1,6.3,52,0.00,,BKN090,0.00,VWS V14.01,2013-05-08 16:33:00,
2013-05-08 12:38:00,68.9,51.1,29.98,SSE,154,4.5,4.5,53,0.00,,BKN090,0.00,VWS V14.01,2013-05-08 16:38:00,
2013-05-08 12:43:00,68.5,50.2,29.98,SSW,199,2.2,4.0,52,0.00,,BKN090,0.00,VWS V14.01,2013-05-08 16:43:00,
2013-05-08 12:48:00,68.4,50.6,29.98,ESE,109,3.1,6.3,53,0.00,,BKN090,0.00,VWS V14.01,2013-05-08 16:48:00,
2013-05-08 12:53:00,68.2,51.9,29.98,ESE,109,2.7,4.0,56,0.00,,BKN090,0.00,VWS V14.01,2013-05-08 16:53:00,
2013-05-08 12:58:00,68.0,52.2,29.98,ESE,104,2.7,4.0,57,0.00,,BKN090,0.00,VWS V14.01,2013-05-08 16:58:00,
2013-05-08 13:03:00,67.8,52.0,29.98,SSE,148,3.6,3.6,57,0.00,,BKN250,0.00,VWS V14.01,2013-05-08 17:03:00,
2013-05-08 13:08:00,68.0,52.2,29.98,SSE,156,2.7,2.7,57,0.00,,BKN250,0.00,VWS V14.01,2013-05-08 17:08:00,
2013-05-08 13:13:00,68.2,51.9,29.98,SE,126,0.0,4.0,56,0.00,,BKN250,0.00,VWS V14.01,2013-05-08 17:13:00,
2013-05-08 13:18:00,68.2,51.9,29.98,SE,138,0.0,5.8,56,0.00,,BKN250,0.00,VWS V14.01,2013-05-08 17:18:00,
2013-05-08 13:23:00,68.0,51.2,29.98,SSE,147,0.0,4.0,55,0.00,,BKN250,0.00,VWS V14.01,2013-05-08 17:23:00,
2013-05-08 13:28:00,67.8,52.0,29.98,South,174,4.0,5.8,57,0.00,,BKN250,0.00,VWS V14.01,2013-05-08 17:28:00,
2013-05-08 13:33:00,67.1,51.8,29.98,South,169,5.4,7.6,58,0.00,,OVC070,0.00,VWS V14.01,2013-05-08 17:33:00,
2013-05-08 13:38:00,66.2,52.4,29.98,SSE,155,5.8,8.3,61,0.00,,OVC070,0.00,VWS V14.01,2013-05-08 17:38:00,
2013-05-08 13:43:00,63.5,53.5,29.98,SSE,157,7.6,10.5,70,0.00,,OVC070,0.00,VWS V14.01,2013-05-08 17:43:00,
2013-05-08 13:48:00,63.0,54.2,29.98,SSE,164,5.8,7.2,73,0.12,,OVC070,0.12,VWS V14.01,2013-05-08 17:48:00,
2013-05-08 13:53:00,63.1,55.1,29.98,SE,134,5.4,5.4,75,0.12,,OVC070,0.12,VWS V14.01,2013-05-08 17:53:00,
2013-05-08 13:58:00,63.5,55.8,29.98,SE,126,4.0,4.0,76,0.12,,OVC070,0.12,VWS V14.01,2013-05-08 17:58:00,
2013-05-08 14:03:00,63.5,56.5,29.98,SE,143,2.7,3.6,78,0.12,,OVC070,0.12,VWS V14.01,2013-05-08 18:03:00,
2013-05-08 14:08:00,63.5,56.5,29.98,ESE,118,0.0,0.0,78,0.12,,OVC070,0.12,VWS V14.01,2013-05-08 18:08:00,
2013-05-08 14:13:00,63.7,57.4,29.98,SSE,151,0.0,0.0,80,0.12,,OVC070,0.12,VWS V14.01,2013-05-08 18:13:00,
2013-05-08 14:18:00,63.5,57.2,29.98,SSE,151,0.0,0.0,80,0.12,,OVC070,0.12,VWS V14.01,2013-05-08 18:18:00,
2013-05-08 14:23:00,63.5,57.6,29.98,ESE,122,0.0,3.6,81,0.16,,OVC070,0.16,VWS V14.01,2013-05-08 18:23:00,
2013-05-08 14:28:00,63.3,57.4,29.98,ESE,117,0.0,2.7,81,0.16,,OVC070,0.16,VWS V14.01,2013-05-08 18:28:00,
2013-05-08 14:34:00,63.3,57.7,29.98,ESE,120,0.0,0.0,82,0.16,,OVC130,0.16,VWS V14.01,2013-05-08 18:34:00,
2013-05-08 14:39:00,63.1,57.6,29.98,East,101,0.0,3.1,82,0.24,,OVC130,0.24,VWS V14.01,2013-05-08 18:39:00,
2013-05-08 14:44:00,63.1,57.9,29.98,SE,126,0.0,3.6,83,0.24,,OVC130,0.24,VWS V14.01,2013-05-08 18:44:00,
2013-05-08 14:49:00,63.0,57.7,29.98,SE,133,2.2,3.1,83,0.16,,OVC130,0.24,VWS V14.01,2013-05-08 18:49:00,
2013-05-08 14:54:00,62.8,57.2,29.98,SE,133,2.7,4.0,82,0.12,,OVC130,0.24,VWS V14.01,2013-05-08 18:54:00,
2013-05-08 14:59:00,62.8,57.5,29.98,SE,133,0.0,2.7,83,0.12,,OVC130,0.24,VWS V14.01,2013-05-08 18:59:00,
2013-05-08 15:04:00,62.8,57.5,29.98,East,92,2.2,2.7,83,0.16,,OVC130,0.28,VWS V14.01,2013-05-08 19:04:00,
2013-05-08 15:09:00,62.8,57.5,29.95,ESE,104,0.0,2.7,83,0.16,,OVC130,0.28,VWS V14.01,2013-05-08 19:09:00,
2013-05-08 15:14:00,62.8,57.9,29.95,East,91,2.7,2.7,84,0.16,,OVC130,0.28,VWS V14.01,2013-05-08 19:14:00,
2013-05-08 15:19:00,62.8,57.9,29.95,SE,141,0.0,3.6,84,0.16,,OVC130,0.28,VWS V14.01,2013-05-08 19:19:00,
2013-05-08 15:24:00,62.6,58.0,29.95,ESE,117,0.0,3.1,85,0.12,,OVC130,0.28,VWS V14.01,2013-05-08 19:24:00,
2013-05-08 15:29:00,62.6,58.4,29.95,ESE,106,2.7,3.6,86,0.12,,OVC130,0.28,VWS V14.01,2013-05-08 19:29:00,
2013-05-08 15:34:00,62.6,58.4,29.95,ENE,78,2.2,3.1,86,0.12,,-RA,0.28,VWS V14.01,2013-05-08 19:34:00,
2013-05-08 15:39:00,63.0,59.0,29.95,NE,46,0.0,3.1,87,0.12,,-RA,0.28,VWS V14.01,2013-05-08 19:39:00,
2013-05-08 15:44:00,63.3,59.7,29.95,East,80,3.1,3.6,88,0.04,,-RA,0.28,VWS V14.01,2013-05-08 19:44:00,
2013-05-08 15:49:00,63.5,60.2,29.95,SSW,192,3.1,3.1,89,0.04,,-RA,0.28,VWS V14.01,2013-05-08 19:49:00,
2013-05-08 15:54:00,63.7,60.4,29.92,ESE,118,2.2,4.0,89,0.04,,-RA,0.28,VWS V14.01,2013-05-08 19:54:00,
2013-05-08 15:59:00,63.9,60.6,29.92,NE,55,2.7,2.7,89,0.04,,-RA,0.28,VWS V14.01,2013-05-08 19:59:00,
2013-05-08 16:04:00,63.7,60.4,29.92,East,81,0.0,4.0,89,0.04,,-RA,0.28,VWS V14.01,2013-05-08 20:04:00,
2013-05-08 16:09:00,63.7,60.1,29.95,NE,40,5.4,5.4,88,0.00,,-RA,0.28,VWS V14.01,2013-05-08 20:09:00,
2013-05-08 16:14:00,63.9,60.2,29.95,ENE,68,0.0,5.4,88,0.00,,-RA,0.28,VWS V14.01,2013-05-08 20:14:00,
2013-05-08 16:19:00,64.2,60.6,29.95,ENE,70,3.1,5.4,88,0.00,,-RA,0.28,VWS V14.01,2013-05-08 20:19:00,
2013-05-08 16:24:00,64.6,60.6,29.95,NE,56,4.0,4.0,87,0.00,,-RA,0.28,VWS V14.01,2013-05-08 20:24:00,
2013-05-08 16:29:00,64.4,60.1,29.95,NE,43,4.0,5.4,86,0.00,,-RA,0.28,VWS V14.01,2013-05-08 20:29:00,
2013-05-08 16:34:00,64.2,59.6,29.95,ENE,65,5.4,5.4,85,0.00,,-RA,0.28,VWS V14.01,2013-05-08 20:34:00,
2013-05-08 16:39:00,64.4,59.5,29.95,NE,55,5.4,5.4,84,0.00,,-RA,0.28,VWS V14.01,2013-05-08 20:39:00,
2013-05-08 16:44:00,64.6,59.3,29.95,ENE,63,3.6,4.9,83,0.00,,-RA,0.28,VWS V14.01,2013-05-08 20:44:00,
2013-05-08 16:49:00,64.2,58.6,29.95,East,90,6.3,8.1,82,0.00,,-RA,0.28,VWS V14.01,2013-05-08 20:49:00,
2013-05-08 16:54:00,64.0,58.4,29.92,NE,47,2.7,7.6,82,0.00,,-RA,0.28,VWS V14.01,2013-05-08 20:54:00,
2013-05-08 16:59:00,64.0,58.1,29.92,East,87,4.0,6.3,81,0.00,,-RA,0.28,VWS V14.01,2013-05-08 20:59:00,
2013-05-08 17:04:00,64.0,58.1,29.92,NE,42,4.0,5.8,81,0.00,,-RA,0.28,VWS V14.01,2013-05-08 21:04:00,
2013-05-08 17:09:00,64.2,57.9,29.92,East,79,3.1,4.9,80,0.00,,-RA,0.28,VWS V14.01,2013-05-08 21:09:00,
2013-05-08 17:14:00,64.8,58.5,29.92,North,1,2.7,6.3,80,0.00,,-RA,0.28,VWS V14.01,2013-05-08 21:14:00,
2013-05-08 17:19:00,65.1,58.1,29.92,North,5,5.8,8.1,78,0.00,,-RA,0.28,VWS V14.01,2013-05-08 21:19:00,
2013-05-08 17:24:00,65.7,58.6,29.92,North,10,4.9,4.9,78,0.00,,-RA,0.28,VWS V14.01,2013-05-08 21:24:00,
2013-05-08 17:29:00,65.5,58.1,29.92,North,357,2.7,6.3,77,0.00,,-RA,0.28,VWS V14.01,2013-05-08 21:29:00,
2013-05-08 17:34:00,65.3,57.9,29.92,NNE,27,0.0,6.3,77,0.00,,-RA,0.28,VWS V14.01,2013-05-08 21:34:00,
2013-05-08 17:39:00,64.9,57.2,29.92,NNE,32,4.0,8.1,76,0.00,,-RA,0.28,VWS V14.01,2013-05-08 21:39:00,
2013-05-08 17:44:00,64.8,56.3,29.92,North,10,3.1,6.3,74,0.00,,-RA,0.28,VWS V14.01,2013-05-08 21:44:00,
2013-05-08 17:49:00,64.8,55.9,29.92,North,350,0.0,4.0,73,0.00,,-RA,0.28,VWS V14.01,2013-05-08 21:49:00,
2013-05-08 17:54:00,64.2,55.0,29.92,SSW,206,4.0,8.7,72,0.00,,-RA,0.28,VWS V14.01,2013-05-08 21:54:00,
2013-05-08 17:59:00,63.3,54.2,29.92,SW,225,5.8,8.1,72,0.00,,-RA,0.28,VWS V14.01,2013-05-08 21:59:00,
2013-05-08 18:04:00,62.8,53.6,29.92,SSE,167,4.0,5.8,72,0.00,,BKN200,0.28,VWS V14.01,2013-05-08 22:04:00,
2013-05-08 18:10:00,62.4,53.7,29.92,SW,225,2.7,5.4,73,0.00,,BKN200,0.28,VWS V14.01,2013-05-08 22:10:00,
2013-05-08 18:15:00,62.2,53.5,29.92,SSW,208,4.0,6.3,73,0.00,,BKN200,0.28,VWS V14.01,2013-05-08 22:15:00,
2013-05-08 18:20:00,61.2,53.5,29.92,SSE,153,3.6,6.3,76,0.04,,BKN200,0.31,VWS V14.01,2013-05-08 22:20:00,
2013-05-08 18:25:00,60.6,54.8,29.92,SSW,208,2.7,4.0,81,0.16,,BKN200,0.43,VWS V14.01,2013-05-08 22:25:00,
2013-05-08 18:30:00,60.4,54.9,29.92,SW,216,2.7,4.0,82,0.24,,BKN200,0.51,VWS V14.01,2013-05-08 22:30:00,
2013-05-08 18:35:00,59.9,54.7,29.92,WSW,254,0.0,2.7,83,0.24,,RA,0.51,VWS V14.01,2013-05-08 22:35:00,
2013-05-08 18:40:00,60.1,55.2,29.92,WSW,254,0.0,0.0,84,0.28,,RA,0.55,VWS V14.01,2013-05-08 22:40:00,
2013-05-08 18:45:00,60.3,55.7,29.92,WSW,254,0.0,0.0,85,0.28,,RA,0.55,VWS V14.01,2013-05-08 22:45:00,
2013-05-08 18:50:00,59.9,55.1,29.92,WSW,254,0.0,0.0,84,0.28,,RA,0.55,VWS V14.01,2013-05-08 22:50:00,
2013-05-08 18:55:00,60.1,55.6,29.92,WSW,254,0.0,0.0,85,0.28,,RA,0.55,VWS V14.01,2013-05-08 22:55:00,
2013-05-08 19:00:00,59.9,55.4,29.92,North,353,0.0,0.0,85,0.28,,RA,0.55,VWS V14.01,2013-05-08 23:00:00,
2013-05-08 19:05:00,59.9,55.7,29.92,North,353,2.7,3.6,86,0.28,,RA,0.55,VWS V14.01,2013-05-08 23:05:00,
2013-05-08 19:10:00,59.7,55.8,29.92,NNW,337,2.7,2.7,87,0.28,,RA,0.55,VWS V14.01,2013-05-08 23:10:00,
2013-05-08 19:15:00,59.7,56.2,29.92,NNW,328,3.1,3.6,88,0.28,,RA,0.55,VWS V14.01,2013-05-08 23:15:00,
2013-05-08 19:20:00,59.7,56.5,29.92,NNW,343,0.0,3.1,89,0.31,,RA,0.59,VWS V14.01,2013-05-08 23:20:00,
2013-05-08 19:25:00,59.7,56.5,29.92,NNW,343,0.0,0.0,89,0.16,,RA,0.59,VWS V14.01,2013-05-08 23:25:00,
2013-05-08 19:30:00,59.7,56.5,29.92,NNW,343,0.0,0.0,89,0.08,,RA,0.59,VWS V14.01,2013-05-08 23:30:00,
2013-05-08 19:35:00,59.7,56.8,29.92,North,357,2.7,3.1,90,0.08,,RA,0.59,VWS V14.01,2013-05-08 23:35:00,
2013-05-08 19:40:00,59.7,56.8,29.92,NE,38,2.7,3.6,90,0.08,,RA,0.59,VWS V14.01,2013-05-08 23:40:00,
2013-05-08 19:45:00,59.5,56.3,29.92,NNE,12,0.0,4.9,89,0.04,,RA,0.59,VWS V14.01,2013-05-08 23:45:00,
2013-05-08 19:50:00,59.4,56.1,29.92,NNE,16,5.4,5.8,89,0.04,,RA,0.59,VWS V14.01,2013-05-08 23:50:00,
2013-05-08 19:55:00,59.4,56.1,29.92,NE,49,2.7,4.0,89,0.04,,RA,0.59,VWS V14.01,2013-05-08 23:55:00,
2013-05-08 20:00:00,59.4,56.4,29.92,NE,46,0.0,3.6,90,0.04,,RA,0.59,VWS V14.01,2013-05-09 00:00:00,
2013-05-08 20:05:00,59.4,56.7,29.92,NE,46,0.0,0.0,91,0.04,,OVC130,0.59,VWS V14.01,2013-05-09 00:05:00,
2013-05-08 20:10:00,59.4,56.7,29.89,NE,52,0.0,2.7,91,0.04,,OVC130,0.59,VWS V14.01,2013-05-09 00:10:00,
2013-05-08 20:15:00,59.4,57.0,29.89,NE,55,0.0,0.0,92,0.04,,OVC130,0.59,VWS V14.01,2013-05-09 00:15:00,
2013-05-08 20:20:00,59.4,57.0,29.89,NE,55,0.0,0.0,92,0.04,,OVC130,0.59,VWS V14.01,2013-05-09 00:20:00,
2013-05-08 20:25:00,59.4,57.0,29.92,NE,55,0.0,0.0,92,0.00,,OVC130,0.59,VWS V14.01,2013-05-09 00:25:00,
2013-05-08 20:30:00,59.2,56.9,29.92,NE,54,0.0,0.0,92,0.00,,OVC130,0.59,VWS V14.01,2013-05-09 00:30:00,
2013-05-08 20:35:00,59.2,56.9,29.92,NE,54,0.0,0.0,92,0.00,,OVC140,0.59,VWS V14.01,2013-05-09 00:35:00,
2013-05-08 20:40:00,59.2,56.9,29.89,NE,55,0.0,0.0,92,0.00,,OVC140,0.59,VWS V14.01,2013-05-09 00:40:00,
2013-05-08 20:45:00,59.0,56.7,29.89,NE,54,0.0,0.0,92,0.00,,OVC140,0.59,VWS V14.01,2013-05-09 00:45:00,
2013-05-08 20:50:00,59.0,56.7,29.89,NE,54,0.0,0.0,92,0.00,,OVC140,0.59,VWS V14.01,2013-05-09 00:50:00,
2013-05-08 20:55:00,59.0,56.7,29.89,NE,54,0.0,0.0,92,0.00,,OVC140,0.59,VWS V14.01,2013-05-09 00:55:00,
2013-05-08 21:00:00,59.0,56.7,29.89,NE,54,0.0,0.0,92,0.00,,OVC140,0.59,VWS V14.01,2013-05-09 01:00:00,
2013-05-08 21:05:00,59.0,57.0,29.89,NE,54,0.0,0.0,93,0.00,,OVC140,0.59,VWS V14.01,2013-05-09 01:05:00,
2013-05-08 21:10:00,59.0,57.0,29.92,NE,55,0.0,0.0,93,0.00,,OVC140,0.59,VWS V14.01,2013-05-09 01:10:00,
2013-05-08 21:15:00,59.0,57.3,29.92,NE,54,0.0,0.0,94,0.00,,OVC140,0.59,VWS V14.01,2013-05-09 01:15:00,
2013-05-08 21:20:00,59.0,57.3,29.92,NE,54,0.0,0.0,94,0.00,,OVC140,0.59,VWS V14.01,2013-05-09 01:20:00,
2013-05-08 21:26:00,58.8,57.1,29.92,NE,54,0.0,0.0,94,0.00,,OVC140,0.59,VWS V14.01,2013-05-09 01:26:00,
2013-05-08 21:31:00,58.8,57.1,29.92,NE,54,0.0,0.0,94,0.00,,OVC140,0.59,VWS V14.01,2013-05-09 01:31:00,
2013-05-08 21:36:00,58.8,57.1,29.92,NE,54,0.0,0.0,94,0.00,,OVC140,0.59,VWS V14.01,2013-05-09 01:36:00,
2013-05-08 21:41:00,58.8,57.1,29.92,NE,54,0.0,0.0,94,0.00,,OVC140,0.59,VWS V14.01,2013-05-09 01:41:00,
2013-05-08 21:46:00,58.8,57.1,29.92,NE,54,0.0,0.0,94,0.00,,OVC140,0.59,VWS V14.01,2013-05-09 01:46:00,
2013-05-08 21:51:00,58.6,56.9,29.92,NE,54,0.0,0.0,94,0.00,,OVC140,0.59,VWS V14.01,2013-05-09 01:51:00,
2013-05-08 21:56:00,58.8,57.4,29.92,NE,55,0.0,0.0,95,0.00,,OVC140,0.59,VWS V14.01,2013-05-09 01:56:00,
2013-05-08 22:01:00,58.6,57.2,29.92,NE,54,0.0,0.0,95,0.00,,OVC140,0.59,VWS V14.01,2013-05-09 02:01:00,
2013-05-08 22:06:00,58.8,57.4,29.92,NE,54,0.0,0.0,95,0.04,,OVC140,0.63,VWS V14.01,2013-05-09 02:06:00,
2013-05-08 22:11:00,58.8,57.7,29.92,NE,54,0.0,0.0,96,0.04,,OVC140,0.63,VWS V14.01,2013-05-09 02:11:00,
2013-05-08 22:16:00,58.8,57.7,29.92,NE,55,0.0,0.0,96,0.04,,OVC140,0.63,VWS V14.01,2013-05-09 02:16:00,
2013-05-08 22:21:00,58.8,57.7,29.92,NE,54,0.0,0.0,96,0.04,,OVC140,0.63,VWS V14.01,2013-05-09 02:21:00,
2013-05-08 22:26:00,58.6,57.5,29.92,NE,54,0.0,0.0,96,0.04,,OVC140,0.63,VWS V14.01,2013-05-09 02:26:00,
2013-05-08 22:31:00,58.5,57.3,29.92,NE,54,0.0,0.0,96,0.04,,OVC140,0.63,VWS V14.01,2013-05-09 02:31:00,
2013-05-08 22:36:00,58.5,57.3,29.89,NE,55,0.0,0.0,96,0.04,,BKN200,0.63,VWS V14.01,2013-05-09 02:36:00,
2013-05-08 22:41:00,58.5,57.3,29.89,NE,54,0.0,0.0,96,0.04,,BKN200,0.63,VWS V14.01,2013-05-09 02:41:00,
2013-05-08 22:46:00,58.3,57.2,29.89,NE,54,0.0,0.0,96,0.04,,BKN200,0.63,VWS V14.01,2013-05-09 02:46:00,
2013-05-08 22:51:00,58.3,57.2,29.89,NE,55,0.0,0.0,96,0.04,,BKN200,0.63,VWS V14.01,2013-05-09 02:51:00,
2013-05-08 22:56:00,58.1,57.0,29.89,NE,54,0.0,0.0,96,0.04,,BKN200,0.63,VWS V14.01,2013-05-09 02:56:00,
2013-05-08 23:01:00,58.3,57.2,29.89,NE,54,0.0,0.0,96,0.04,,BKN200,0.63,VWS V14.01,2013-05-09 03:01:00,
2013-05-08 23:06:00,58.3,57.2,29.89,NE,55,0.0,0.0,96,0.00,,BKN200,0.63,VWS V14.01,2013-05-09 03:06:00,
2013-05-08 23:11:00,58.3,57.2,29.89,NE,54,0.0,0.0,96,0.00,,BKN200,0.63,VWS V14.01,2013-05-09 03:11:00,
2013-05-08 23:16:00,58.3,57.2,29.89,NE,55,0.0,0.0,96,0.00,,BKN200,0.63,VWS V14.01,2013-05-09 03:16:00,
2013-05-08 23:21:00,57.9,56.8,29.89,NE,54,0.0,0.0,96,0.00,,BKN200,0.63,VWS V14.01,2013-05-09 03:21:00,
2013-05-08 23:26:00,57.9,56.5,29.89,NE,55,0.0,0.0,95,0.00,,BKN200,0.63,VWS V14.01,2013-05-09 03:26:00,
2013-05-08 23:31:00,58.1,57.0,29.89,NE,54,0.0,0.0,96,0.00,,BKN200,0.63,VWS V14.01,2013-05-09 03:31:00,
2013-05-08 23:36:00,58.1,57.0,29.89,NE,54,0.0,0.0,96,0.00,,-RA,0.63,VWS V14.01,2013-05-09 03:36:00,
2013-05-08 23:41:00,58.1,57.3,29.89,NE,54,0.0,0.0,97,0.00,,-RA,0.63,VWS V14.01,2013-05-09 03:41:00,
2013-05-08 23:46:00,58.1,57.3,29.89,NE,54,0.0,0.0,97,0.00,,-RA,0.63,VWS V14.01,2013-05-09 03:46:00,
2013-05-08 23:51:00,57.9,57.1,29.89,NE,55,0.0,0.0,97,0.00,,-RA,0.63,VWS V14.01,2013-05-09 03:51:00,
2013-05-08 23:56:00,57.7,56.6,29.89,NE,54,0.0,0.0,96,0.00,,-RA,0.63,VWS V14.01,2013-05-09 03:56:00,